Time;durP1;ratioP1;P1;durP2;ratioP2;P2;SDS_P1;SDS_P2;PMS_P1;PMS_P2;Temp;Humidity;BMP_temperature;BMP_pressure;BME280_temperature;BME280_humidity;BME280_pressure;Samples;Min_cycle;Max_cycle;Signal;HPM_P1;HPM_P2
2021/10/17 00:00:53;;;;;;;44.08;25.25;;;;;;;8.10;89.71;100672.10;1768670;81;21056;-82
2021/10/17 00:03:19;;;;;;;44.25;23.30;;;;;;;8.08;89.79;100660.34;1773597;81;21328;-82
2021/10/17 00:05:45;;;;;;;57.88;28.02;;;;;;;8.08;89.82;100660.34;1771354;81;21465;-82
2021/10/17 00:08:11;;;;;;;56.70;31.07;;;;;;;8.07;89.75;100663.91;1765360;80;21025;-82
2021/10/17 00:10:38;;;;;;;63.95;32.95;;;;;;;8.06;90.06;100666.17;1765956;81;20981;-82
2021/10/17 00:13:08;;;;;;;58.55;32.63;;;;;;;8.08;89.96;100663.44;1773350;81;21560;-82
2021/10/17 00:15:37;;;;;;;58.68;31.50;;;;;;;8.06;89.82;100664.86;1772150;81;20989;-83
2021/10/17 00:18:06;;;;;;;52.75;31.23;;;;;;;8.04;89.77;100660.14;1763802;81;20959;-82
2021/10/17 00:20:32;;;;;;;56.40;32.13;;;;;;;8.03;89.79;100666.78;1768134;81;21037;-82
2021/10/17 00:22:58;;;;;;;57.25;31.62;;;;;;;8.03;89.83;100661.09;1765948;81;21039;-83
2021/10/17 00:25:25;;;;;;;50.08;30.60;;;;;;;8.03;89.80;100666.78;1769291;80;21029;-82
2021/10/17 00:27:52;;;;;;;48.38;28.40;;;;;;;8.01;89.86;100664.73;1765603;81;21011;-82
2021/10/17 00:30:18;;;;;;;48.60;27.45;;;;;;;7.99;90.07;100666.98;1763535;80;21003;-82
2021/10/17 00:32:45;;;;;;;47.60;26.52;;;;;;;7.98;90.22;100666.58;1767350;80;21033;-83
2021/10/17 00:35:13;;;;;;;44.65;25.08;;;;;;;7.97;89.97;100660.95;1767417;81;20959;-82
2021/10/17 00:37:41;;;;;;;45.58;25.08;;;;;;;7.95;89.88;100661.97;1763418;80;21038;-82
2021/10/17 00:40:11;;;;;;;43.25;27.80;;;;;;;7.94;90.17;100657.66;1769576;80;20970;-83
2021/10/17 00:42:39;;;;;;;49.08;29.02;;;;;;;7.94;90.03;100661.13;1764318;80;21566;-83
2021/10/17 00:45:10;;;;;;;45.85;26.97;;;;;;;7.92;90.07;100655.58;1765115;81;21033;-83
2021/10/17 00:47:36;;;;;;;44.95;27.50;;;;;;;7.89;89.97;100655.74;1762390;81;22524;-83
2021/10/17 00:50:05;;;;;;;44.33;26.37;;;;;;;7.89;90.18;100659.21;1761338;81;20958;-83
2021/10/17 00:52:31;;;;;;;39.30;24.15;;;;;;;7.89;90.19;100656.59;1771151;81;20987;-83
2021/10/17 00:54:58;;;;;;;44.65;26.40;;;;;;;7.89;90.23;100656.59;1774145;81;20990;-83
2021/10/17 00:57:24;;;;;;;40.23;24.98;;;;;;;7.89;90.26;100647.86;1773893;80;21094;-83
2021/10/17 00:59:50;;;;;;;47.85;27.52;;;;;;;7.89;90.34;100653.95;1774305;80;21530;-83
2021/10/17 01:02:15;;;;;;;45.65;27.48;;;;;;;7.89;90.38;100653.95;1773952;81;21071;-83
2021/10/17 01:04:42;;;;;;;47.93;27.60;;;;;;;7.90;90.22;100650.89;1774125;80;21163;-83
2021/10/17 01:07:09;;;;;;;46.40;26.02;;;;;;;7.88;90.19;100652.74;1773546;81;21067;-83
2021/10/17 01:09:37;;;;;;;38.02;25.60;;;;;;;7.87;90.30;100654.53;1774183;80;20987;-83
2021/10/17 01:12:05;;;;;;;50.00;29.85;;;;;;;7.87;90.47;100657.16;1772566;80;20993;-83
2021/10/17 01:14:32;;;;;;;49.50;28.67;;;;;;;7.88;90.45;100650.96;1769189;81;20988;-83
2021/10/17 01:16:58;;;;;;;45.98;28.45;;;;;;;7.86;90.32;100650.19;1768873;81;21492;-83
2021/10/17 01:19:25;;;;;;;50.75;29.98;;;;;;;7.84;90.46;100648.13;1769272;81;21056;-83
2021/10/17 01:21:51;;;;;;;49.95;30.43;;;;;;;7.82;90.45;100636.84;1768951;81;21061;-83
2021/10/17 01:24:18;;;;;;;50.25;28.87;;;;;;;7.78;90.45;100639.27;1769131;80;21459;-83
2021/10/17 01:26:46;;;;;;;47.03;29.67;;;;;;;7.79;90.69;100640.95;1768874;81;21040;-83
2021/10/17 01:29:13;;;;;;;45.33;28.23;;;;;;;7.81;90.72;100639.10;1769174;81;21000;-83
2021/10/17 01:31:50;;;;;;;50.85;30.70;;;;;;;7.83;90.80;100640.31;1769120;80;21516;-83
2021/10/17 01:34:16;;;;;;;54.40;31.82;;;;;;;7.82;90.93;100628.97;1765046;81;20990;-83
2021/10/17 01:36:44;;;;;;;52.53;31.60;;;;;;;7.83;90.80;100633.31;1763842;81;20978;-83
2021/10/17 01:39:14;;;;;;;53.50;31.10;;;;;;;7.83;90.74;100625.87;1759155;81;20974;-83
2021/10/17 01:41:40;;;;;;;51.58;30.75;;;;;;;7.82;90.88;100628.13;1763738;81;21065;-83
2021/10/17 01:44:14;;;;;;;57.95;31.62;;;;;;;7.82;90.89;100624.19;1764885;81;21054;-83
2021/10/17 01:46:41;;;;;;;61.15;35.00;;;;;;;7.82;90.78;100620.24;1772155;80;21076;-83
2021/10/17 01:49:10;;;;;;;60.28;34.08;;;;;;;7.78;90.62;100618.73;1774061;80;21010;-83
2021/10/17 01:51:36;;;;;;;53.35;31.40;;;;;;;7.77;90.74;100615.27;1773574;81;21049;-83
2021/10/17 01:54:05;;;;;;;65.95;36.98;;;;;;;7.77;90.75;100619.67;1773774;81;21010;-83
2021/10/17 01:56:33;;;;;;;58.70;35.50;;;;;;;7.77;90.77;100614.42;1774061;80;21045;-83
2021/10/17 01:58:59;;;;;;;60.92;35.45;;;;;;;7.74;90.69;100611.49;1740728;81;20981;-83
2021/10/17 02:01:26;;;;;;;53.38;33.70;;;;;;;7.73;90.92;100613.27;1739702;82;21520;-83
2021/10/17 02:03:54;;;;;;;61.80;38.20;;;;;;;7.73;91.05;100612.41;1739597;82;21013;-83
2021/10/17 02:06:20;;;;;;;57.00;34.80;;;;;;;7.74;90.99;100614.95;1739397;82;21052;-83
2021/10/17 02:08:46;;;;;;;62.30;36.55;;;;;;;7.75;91.05;100614.48;1739484;82;21004;-83
2021/10/17 02:11:12;;;;;;;61.77;38.42;;;;;;;7.74;90.96;100611.49;1741820;81;20946;-83
2021/10/17 02:13:39;;;;;;;61.30;39.67;;;;;;;7.72;91.17;100607.62;1761635;81;20939;-83
2021/10/17 02:16:05;;;;;;;65.70;37.60;;;;;;;7.71;91.18;100610.34;1764187;80;21053;-83
2021/10/17 02:18:32;;;;;;;59.77;38.85;;;;;;;7.71;91.15;100614.28;1773936;81;21021;-83
2021/10/17 02:21:00;;;;;;;67.87;38.45;;;;;;;7.70;91.04;100608.62;1774096;80;20997;-83
2021/10/17 02:23:26;;;;;;;57.93;33.67;;;;;;;7.70;91.18;100608.62;1774091;80;20993;-83
2021/10/17 02:25:52;;;;;;;60.00;34.98;;;;;;;7.70;91.41;100609.95;1773916;81;21555;-83
2021/10/17 02:28:18;;;;;;;58.40;32.63;;;;;;;7.71;91.48;100602.47;1771464;80;21033;-83
2021/10/17 02:30:44;;;;;;;52.70;32.15;;;;;;;7.72;91.36;100602.36;1774034;80;21045;-83
2021/10/17 02:33:11;;;;;;;51.18;31.75;;;;;;;7.73;91.45;100601.45;1774017;81;21001;-83
2021/10/17 02:35:37;;;;;;;55.50;33.75;;;;;;;7.73;91.40;100594.02;1773899;81;21096;-83
2021/10/17 02:38:04;;;;;;;52.33;31.93;;;;;;;7.75;91.47;100597.41;1773975;81;21013;-83
2021/10/17 02:40:30;;;;;;;53.60;33.45;;;;;;;7.74;91.34;100598.36;1773872;80;21041;-83
2021/10/17 02:42:56;;;;;;;50.23;30.95;;;;;;;7.72;91.24;100598.90;1773797;81;21558;-83
2021/10/17 02:45:22;;;;;;;55.28;32.35;;;;;;;7.70;91.22;100585.86;1774210;81;20950;-83
2021/10/17 02:47:48;;;;;;;47.95;31.57;;;;;;;7.69;91.31;100580.68;1773978;81;21025;-83
2021/10/17 02:50:14;;;;;;;53.78;32.40;;;;;;;7.70;91.39;100586.30;1765456;81;21002;-83
2021/10/17 02:52:40;;;;;;;57.05;32.53;;;;;;;7.69;91.43;100588.09;1763853;81;21050;-83
2021/10/17 02:55:07;;;;;;;48.13;30.52;;;;;;;7.70;91.50;100591.12;1749799;81;20969;-83
2021/10/17 02:57:33;;;;;;;50.78;30.25;;;;;;;7.69;91.54;100591.19;1739508;82;21025;-83
2021/10/17 02:59:58;;;;;;;48.87;28.73;;;;;;;7.66;91.45;100579.06;1739559;82;21020;-83
2021/10/17 03:02:24;;;;;;;48.25;29.12;;;;;;;7.65;91.51;100588.36;1739401;81;21005;-83
2021/10/17 03:04:50;;;;;;;51.15;31.30;;;;;;;7.64;91.44;100583.58;1739497;82;20985;-83
2021/10/17 03:07:16;;;;;;;49.48;31.00;;;;;;;7.63;91.42;100579.70;1739414;82;21005;-83
2021/10/17 03:09:42;;;;;;;54.42;32.53;;;;;;;7.60;91.49;100586.45;1739633;82;21448;-83
2021/10/17 03:12:08;;;;;;;51.30;31.95;;;;;;;7.60;91.60;100591.70;1752507;81;20966;-83
2021/10/17 03:14:34;;;;;;;50.28;30.70;;;;;;;7.60;91.53;100587.32;1774117;81;21545;-83
2021/10/17 03:17:00;;;;;;;51.88;32.03;;;;;;;7.60;91.68;100585.13;1774011;80;21036;-83
2021/10/17 03:19:26;;;;;;;53.58;30.57;;;;;;;7.59;91.69;100587.39;1774269;80;21032;-82
2021/10/17 03:21:52;;;;;;;46.55;31.25;;;;;;;7.59;91.80;100593.48;1773795;81;21527;-82
2021/10/17 03:24:18;;;;;;;51.45;29.87;;;;;;;7.58;91.89;100588.33;1773222;80;21041;-82
2021/10/17 03:26:44;;;;;;;52.85;30.20;;;;;;;7.58;91.76;100592.27;1734039;83;21088;-82
2021/10/17 03:29:10;;;;;;;55.95;33.40;;;;;;;7.57;91.74;100590.55;1704018;84;21654;-82
2021/10/17 03:31:38;;;;;;;54.23;32.58;;;;;;;7.48;91.72;100580.95;1773446;81;20993;-82
2021/10/17 03:34:04;;;;;;;52.70;32.13;;;;;;;7.57;91.84;100595.80;1773193;80;21533;-83
2021/10/17 03:36:30;;;;;;;58.42;33.70;;;;;;;7.56;91.80;100596.28;1773630;80;21022;-83
2021/10/17 03:38:56;;;;;;;54.75;31.75;;;;;;;7.57;91.88;100597.99;1773719;80;21017;-83
2021/10/17 03:41:22;;;;;;;50.52;31.27;;;;;;;7.56;91.80;100593.65;1773870;80;21503;-83
2021/10/17 03:43:48;;;;;;;58.73;33.15;;;;;;;7.55;91.81;100599.00;1773683;80;21022;-83
2021/10/17 03:46:19;;;;;;;61.77;33.92;;;;;;;7.55;91.75;100599.84;1773609;80;20973;-83
2021/10/17 03:48:45;;;;;;;54.90;33.13;;;;;;;7.53;91.92;100595.13;1769841;80;21382;-82
2021/10/17 03:51:11;;;;;;;51.10;31.10;;;;;;;7.54;92.07;100598.16;1766785;80;21523;-82
2021/10/17 03:53:37;;;;;;;51.53;31.97;;;;;;;7.55;91.90;100591.12;1734120;82;21037;-82
2021/10/17 03:56:04;;;;;;;50.40;31.75;;;;;;;7.52;91.82;100593.45;1703535;84;21034;-82
2021/10/17 03:58:30;;;;;;;53.65;32.53;;;;;;;7.51;91.96;100593.92;1742820;82;21017;-82
2021/10/17 04:00:56;;;;;;;54.88;31.40;;;;;;;7.53;91.97;100592.51;1743014;82;21079;-82
2021/10/17 04:03:22;;;;;;;53.83;31.10;;;;;;;7.53;91.83;100580.69;1743140;82;21053;-82
2021/10/17 04:05:48;;;;;;;50.95;31.30;;;;;;;7.50;91.83;100583.05;1751058;81;21543;-82
2021/10/17 04:08:14;;;;;;;52.83;30.80;;;;;;;7.47;91.89;100587.16;1763587;81;21006;-83
2021/10/17 04:10:40;;;;;;;55.65;33.05;;;;;;;7.47;92.16;100585.84;1763681;81;20982;-83
2021/10/17 04:13:06;;;;;;;49.15;32.00;;;;;;;7.49;92.08;100585.73;1763695;81;21331;-82
2021/10/17 04:15:35;;;;;;;60.05;33.08;;;;;;;7.47;91.89;100583.22;1764226;80;20978;-82
2021/10/17 04:18:00;;;;;;;55.73;33.30;;;;;;;7.47;91.89;100583.69;1763354;81;21542;-82
2021/10/17 04:20:26;;;;;;;55.70;34.00;;;;;;;7.48;92.24;100584.05;1769768;81;21016;-82
2021/10/17 04:22:52;;;;;;;51.95;33.08;;;;;;;7.49;92.26;100588.36;1769076;81;21100;-82
2021/10/17 04:25:18;;;;;;;57.65;33.60;;;;;;;7.48;92.22;100588.84;1769267;81;21013;-82
2021/10/17 04:27:44;;;;;;;52.98;32.73;;;;;;;7.49;92.17;100587.05;1769037;81;21439;-82
2021/10/17 04:30:11;;;;;;;45.43;28.47;;;;;;;7.49;92.16;100584.42;1769132;81;20981;-82
2021/10/17 04:32:37;;;;;;;52.03;31.07;;;;;;;7.48;92.26;100579.64;1769016;81;20941;-82
2021/10/17 04:35:04;;;;;;;51.85;29.10;;;;;;;7.47;92.02;100586.31;1769094;81;21068;-82
2021/10/17 04:37:30;;;;;;;50.15;31.45;;;;;;;7.46;92.34;100584.12;1769032;81;20978;-82
2021/10/17 04:39:57;;;;;;;51.33;30.30;;;;;;;7.47;92.33;100577.12;1768850;81;21520;-82
2021/10/17 04:42:23;;;;;;;48.80;29.60;;;;;;;7.48;92.20;100590.15;1768983;80;20989;-82
2021/10/17 04:44:49;;;;;;;58.52;31.82;;;;;;;7.47;92.18;100581.90;1769067;80;20957;-82
2021/10/17 04:47:15;;;;;;;56.70;35.33;;;;;;;7.48;92.00;100574.86;1768525;80;21029;-83
2021/10/17 04:49:41;;;;;;;57.38;35.75;;;;;;;7.43;91.96;100573.79;1734613;83;21453;-82
2021/10/17 04:52:07;;;;;;;61.95;37.88;;;;;;;7.43;92.09;100572.95;1704099;84;20987;-82
2021/10/17 04:54:33;;;;;;;70.20;40.85;;;;;;;7.44;92.11;100572.87;1764497;81;21017;-82
2021/10/17 04:56:58;;;;;;;62.43;40.80;;;;;;;7.42;91.99;100572.58;1772233;81;21047;-82
2021/10/17 04:59:24;;;;;;;66.30;40.35;;;;;;;7.39;91.97;100568.80;1770798;81;21057;-82
2021/10/17 05:01:50;;;;;;;62.65;40.35;;;;;;;7.36;92.05;100572.44;1763890;81;21001;-82
2021/10/17 05:04:18;;;;;;;49.23;30.00;;;;;;;7.37;92.20;100575.91;1764191;81;20966;-82
2021/10/17 05:06:45;;;;;;;54.30;30.62;;;;;;;7.40;92.21;100571.80;1764228;81;21449;-82
2021/10/17 05:09:11;;;;;;;46.53;27.75;;;;;;;7.39;92.23;100574.90;1734650;82;21015;-82
2021/10/17 05:11:37;;;;;;;46.92;26.23;;;;;;;7.41;92.22;100572.20;1704407;84;20971;-82
2021/10/17 05:14:03;;;;;;;41.85;24.23;;;;;;;7.39;92.10;100568.80;1774090;81;21078;-82
2021/10/17 05:16:29;;;;;;;40.73;24.37;;;;;;;7.38;92.16;100574.53;1734566;82;21041;-82
2021/10/17 05:18:55;;;;;;;40.00;23.50;;;;;;;7.39;92.16;100568.33;1703888;84;21154;-83
2021/10/17 05:21:21;;;;;;;39.13;21.70;;;;;;;7.39;92.19;100570.95;1774225;81;21069;-82
2021/10/17 05:23:47;;;;;;;45.55;23.98;;;;;;;7.37;92.18;100571.53;1734505;83;21006;-83
2021/10/17 05:26:13;;;;;;;37.03;21.65;;;;;;;7.36;92.20;100571.12;1693466;84;21518;-82
2021/10/17 05:28:39;;;;;;;35.25;20.88;;;;;;;7.35;92.22;100573.38;1770697;81;21504;-83
2021/10/17 05:31:05;;;;;;;36.33;22.17;;;;;;;7.34;92.30;100573.45;1774091;81;20994;-82
2021/10/17 05:33:32;;;;;;;41.10;22.60;;;;;;;7.34;92.35;100573.02;1774062;80;21016;-82
2021/10/17 05:35:58;;;;;;;35.33;22.07;;;;;;;7.33;92.31;100575.70;1744595;82;20993;-82
2021/10/17 05:38:24;;;;;;;35.00;22.87;;;;;;;7.33;92.33;100582.27;1744161;82;21037;-82
2021/10/17 05:40:50;;;;;;;37.78;22.85;;;;;;;7.33;92.41;100578.33;1744346;82;20985;-82
2021/10/17 05:43:16;;;;;;;38.65;22.15;;;;;;;7.32;92.47;100589.77;1744220;82;21021;-82
2021/10/17 05:45:42;;;;;;;35.35;22.85;;;;;;;7.33;92.77;100592.30;1751498;81;21503;-82
2021/10/17 05:48:08;;;;;;;38.25;22.62;;;;;;;7.37;92.79;100583.34;1763889;81;20966;-82
2021/10/17 05:50:34;;;;;;;34.70;20.37;;;;;;;7.42;93.01;100596.20;1769429;80;21472;-83
2021/10/17 05:53:00;;;;;;;38.02;21.27;;;;;;;7.44;92.71;100591.26;1774111;81;20989;-83
2021/10/17 05:55:26;;;;;;;33.98;20.88;;;;;;;7.43;92.47;100584.77;1774085;80;21002;-82
2021/10/17 05:57:52;;;;;;;44.83;22.80;;;;;;;7.40;92.41;100587.55;1773831;81;20950;-83
2021/10/17 06:00:20;;;;;;;39.80;23.50;;;;;;;7.37;92.53;100588.59;1772867;81;21001;-83
2021/10/17 06:02:46;;;;;;;40.08;23.55;;;;;;;7.38;92.69;100586.34;1752952;80;21052;-82
2021/10/17 06:05:12;;;;;;;38.25;22.13;;;;;;;7.40;92.72;100589.71;1747142;81;20957;-82
2021/10/17 06:07:38;;;;;;;39.65;21.52;;;;;;;7.40;92.61;100583.62;1767569;81;21425;-82
2021/10/17 06:10:09;;;;;;;36.68;22.02;;;;;;;7.40;92.57;100583.14;1761309;81;20961;-83
2021/10/17 06:12:38;;;;;;;35.70;21.80;;;;;;;7.39;92.56;100581.46;1758525;81;21013;-83
2021/10/17 06:15:07;;;;;;;37.73;23.18;;;;;;;7.40;92.64;100581.83;1729477;82;21053;-83
2021/10/17 06:17:33;;;;;;;40.20;23.22;;;;;;;7.40;92.61;100584.93;1712254;84;21030;-83
2021/10/17 06:19:59;;;;;;;31.90;20.80;;;;;;;7.41;92.74;100584.86;1733373;83;21421;-83
2021/10/17 06:22:25;;;;;;;34.33;19.52;;;;;;;7.43;92.72;100588.23;1734351;82;21014;-83
2021/10/17 06:24:51;;;;;;;33.98;21.37;;;;;;;7.46;92.77;100589.84;1734555;83;20994;-83
2021/10/17 06:27:17;;;;;;;29.60;19.12;;;;;;;7.47;92.76;100591.09;1734552;82;20978;-83
2021/10/17 06:29:44;;;;;;;35.35;19.07;;;;;;;7.51;92.77;100592.61;1733856;83;21488;-83
2021/10/17 06:32:09;;;;;;;36.98;20.17;;;;;;;7.54;92.72;100592.91;1719407;83;20977;-83
2021/10/17 06:34:36;;;;;;;34.40;20.05;;;;;;;7.56;92.87;100600.69;1718030;83;21511;-83
2021/10/17 06:37:02;;;;;;;34.40;19.80;;;;;;;7.59;93.12;100604.45;1730933;83;20998;-83
2021/10/17 06:39:28;;;;;;;36.80;20.62;;;;;;;7.62;93.13;100600.34;1711231;83;21056;-83
2021/10/17 06:41:54;;;;;;;34.35;20.40;;;;;;;7.64;92.76;100608.53;1743167;82;21105;-83
2021/10/17 06:44:20;;;;;;;33.53;20.80;;;;;;;7.65;92.67;100606.75;1746846;82;21461;-83
2021/10/17 06:46:49;;;;;;;38.23;21.17;;;;;;;7.65;92.86;100611.53;1748354;82;21527;-83
2021/10/17 06:49:15;;;;;;;34.27;21.30;;;;;;;7.66;93.24;100605.33;1748599;82;21052;-83
2021/10/17 06:51:41;;;;;;;43.68;24.65;;;;;;;7.71;93.32;100607.72;1748281;81;20998;-83
2021/10/17 06:54:07;;;;;;;39.55;24.92;;;;;;;7.76;93.10;100605.66;1748522;82;20978;-83
2021/10/17 06:56:33;;;;;;;45.95;26.62;;;;;;;7.80;92.81;100611.59;1748418;81;20935;-83
2021/10/17 06:58:59;;;;;;;41.80;27.10;;;;;;;7.80;92.64;100608.52;1748586;81;20958;-83
2021/10/17 07:01:25;;;;;;;47.60;30.95;;;;;;;7.81;92.69;100619.41;1755707;81;21014;-83
2021/10/17 07:03:50;;;;;;;51.13;33.45;;;;;;;7.85;92.79;100612.19;1773821;81;20970;-83
2021/10/17 07:06:16;;;;;;;52.00;31.97;;;;;;;7.89;92.69;100612.39;1774073;81;21445;-83
2021/10/17 07:08:43;;;;;;;49.30;32.73;;;;;;;7.89;92.69;100612.39;1774144;80;20982;-83
2021/10/17 07:11:09;;;;;;;45.63;31.90;;;;;;;7.91;92.44;100614.00;1773991;81;20977;-83
2021/10/17 07:13:35;;;;;;;47.08;29.70;;;;;;;7.96;92.43;100621.61;1773877;80;21034;-83
2021/10/17 07:16:01;;;;;;;47.62;30.85;;;;;;;7.99;92.31;100617.50;1773970;81;21025;-83
2021/10/17 07:18:27;;;;;;;52.33;31.97;;;;;;;8.02;92.17;100620.42;1773981;80;20977;-83
2021/10/17 07:20:53;;;;;;;44.90;30.25;;;;;;;8.03;92.01;100623.42;1774152;81;21521;-83
2021/10/17 07:23:20;;;;;;;40.33;27.62;;;;;;;8.06;91.91;100614.05;1773938;80;21013;-83
2021/10/17 07:25:46;;;;;;;47.15;29.02;;;;;;;8.11;92.00;100623.84;1773912;80;21471;-83
2021/10/17 07:28:12;;;;;;;45.23;28.55;;;;;;;8.13;91.93;100620.67;1773946;81;20989;-83
2021/10/17 07:30:38;;;;;;;35.33;22.95;;;;;;;8.16;92.17;100628.35;1770005;81;21025;-83
2021/10/17 07:33:04;;;;;;;32.28;18.87;;;;;;;8.21;91.85;100628.95;1760198;81;20970;-83
2021/10/17 07:35:31;;;;;;;29.40;19.75;;;;;;;8.25;91.60;100625.67;1774086;81;20965;-83
2021/10/17 07:37:58;;;;;;;24.52;16.97;;;;;;;8.27;91.23;100625.12;1773825;81;21580;-83
2021/10/17 07:40:24;;;;;;;25.35;16.75;;;;;;;8.30;91.04;100628.89;1773901;80;21002;-83
2021/10/17 07:42:51;;;;;;;25.25;15.05;;;;;;;8.32;91.03;100627.84;1773825;80;21098;-83
2021/10/17 07:45:17;;;;;;;23.35;13.85;;;;;;;8.36;91.02;100620.17;1774061;80;21473;-83
2021/10/17 07:47:43;;;;;;;25.05;15.72;;;;;;;8.40;91.20;100619.56;1773974;81;21005;-83
2021/10/17 07:50:10;;;;;;;26.42;16.12;;;;;;;8.44;91.06;100619.27;1774031;81;21477;-83
2021/10/17 07:52:36;;;;;;;25.70;16.05;;;;;;;8.48;90.71;100620.41;1774106;81;21008;-83
2021/10/17 07:55:05;;;;;;;31.25;18.98;;;;;;;8.51;90.46;100622.38;1774161;80;21048;-83
2021/10/17 07:57:49;;;;;;;32.03;18.25;;;;;;;8.55;90.28;100630.47;1773503;81;21013;-83
2021/10/17 08:00:27;;;;;;;33.65;18.23;;;;;;;8.58;90.31;100626.81;1772649;80;21065;-83
2021/10/17 08:02:53;;;;;;;31.10;16.15;;;;;;;8.60;90.15;100632.37;1773414;80;21002;-83
2021/10/17 08:05:20;;;;;;;28.15;16.40;;;;;;;8.63;89.78;100624.30;1768244;81;20986;-83
2021/10/17 08:07:46;;;;;;;26.80;15.90;;;;;;;8.65;90.05;100621.12;1763719;81;20981;-83
2021/10/17 08:10:13;;;;;;;24.07;15.35;;;;;;;8.68;90.04;100623.53;1764861;81;21020;-83
2021/10/17 08:12:40;;;;;;;25.48;15.58;;;;;;;8.73;89.83;100621.12;1774104;80;21068;-82
2021/10/17 08:15:08;;;;;;;21.20;14.03;;;;;;;8.75;90.01;100621.38;1773969;81;20966;-82
2021/10/17 08:17:34;;;;;;;25.30;15.00;;;;;;;8.79;89.77;100623.38;1772275;79;21033;-82
2021/10/17 08:20:03;;;;;;;26.17;15.55;;;;;;;8.81;89.30;100619.70;1768344;80;22229;-83
2021/10/17 08:22:29;;;;;;;28.42;15.32;;;;;;;8.84;89.54;100619.52;1774531;80;21025;-83
2021/10/17 08:24:55;;;;;;;21.77;13.78;;;;;;;8.87;89.34;100621.96;1741458;80;21013;-82
2021/10/17 08:27:21;;;;;;;21.40;13.10;;;;;;;8.90;89.69;100632.30;1738617;80;20989;-82
2021/10/17 08:29:47;;;;;;;22.95;12.82;;;;;;;8.94;89.50;100634.28;1737208;81;21045;-82
2021/10/17 08:32:14;;;;;;;24.70;14.28;;;;;;;8.98;89.46;100634.94;1736818;82;21519;-82
2021/10/17 08:34:40;;;;;;;23.65;13.98;;;;;;;9.03;89.67;100631.56;1738860;81;21049;-83
2021/10/17 08:37:06;;;;;;;20.55;11.88;;;;;;;9.08;89.22;100630.80;1772379;81;20950;-82
2021/10/17 08:39:32;;;;;;;19.48;13.20;;;;;;;9.10;89.37;100624.50;1773201;81;21026;-82
2021/10/17 08:41:58;;;;;;;20.48;12.20;;;;;;;9.16;89.23;100625.45;1773167;81;20981;-82
2021/10/17 08:44:24;;;;;;;20.62;12.20;;;;;;;9.20;89.18;100621.31;1773272;81;21461;-82
2021/10/17 08:46:51;;;;;;;18.52;12.95;;;;;;;9.26;89.28;100625.72;1764208;81;21456;-82
2021/10/17 08:49:21;;;;;;;19.62;11.83;;;;;;;9.30;89.16;100624.58;1768837;81;20992;-82
2021/10/17 08:51:47;;;;;;;26.93;12.45;;;;;;;9.34;88.77;100628.70;1760616;81;21065;-82
2021/10/17 08:54:13;;;;;;;19.77;11.10;;;;;;;9.37;88.63;100621.94;1750723;81;20977;-82
2021/10/17 08:56:40;;;;;;;20.32;12.82;;;;;;;9.40;88.76;100620.42;1768076;81;21014;-82
2021/10/17 08:59:05;;;;;;;21.23;12.47;;;;;;;9.47;89.11;100621.36;1763321;81;21001;-83
2021/10/17 09:01:34;;;;;;;19.12;12.30;;;;;;;9.51;88.95;100625.04;1769866;81;21530;-83
2021/10/17 09:04:02;;;;;;;19.37;13.55;;;;;;;9.56;88.33;100622.94;1756085;80;21013;-87
2021/10/17 09:06:34;;;;;;;18.87;12.45;;;;;;;9.61;88.66;100617.40;1765740;80;20994;-88
2021/10/17 09:09:15;;;;;;;20.95;13.78;;;;;;;9.67;88.44;100626.67;1755335;80;20961;-83
2021/10/17 09:11:56;;;;;;;17.77;12.90;;;;;;;9.71;87.74;100627.72;1769954;80;21521;-83
2021/10/17 09:14:25;;;;;;;29.07;14.53;;;;;;;9.74;87.97;100624.89;1756830;80;21046;-81
2021/10/17 09:16:54;;;;;;;22.48;14.35;;;;;;;9.80;87.60;100625.78;1756461;79;20990;-81
2021/10/17 09:19:26;;;;;;;25.70;14.95;;;;;;;9.83;87.65;100626.91;1760844;80;21066;-81
2021/10/17 09:22:09;;;;;;;22.07;13.62;;;;;;;9.86;87.77;100631.98;1770946;81;21066;-82
2021/10/17 09:24:42;;;;;;;21.95;13.40;;;;;;;9.91;87.52;100629.54;1763257;81;21051;-82
2021/10/17 09:27:19;;;;;;;18.42;12.53;;;;;;;9.96;87.58;100628.75;1759694;81;20997;-83
2021/10/17 09:29:56;;;;;;;19.32;12.05;;;;;;;9.99;87.27;100632.51;1739826;80;21045;-83
2021/10/17 09:32:25;;;;;;;23.18;14.93;;;;;;;10.02;87.02;100634.47;1763640;80;21076;-83
2021/10/17 09:34:59;;;;;;;27.87;15.43;;;;;;;10.04;86.88;100640.50;1784361;80;21035;-83
2021/10/17 09:37:39;;;;;;;30.05;17.30;;;;;;;10.08;87.31;100634.55;1747030;80;21044;-81
2021/10/17 09:40:19;;;;;;;28.75;17.15;;;;;;;10.10;87.74;100629.56;1751073;82;21578;-82
2021/10/17 09:43:24;;;;;;;24.05;15.23;;;;;;;10.14;87.75;100632.84;1784886;80;21068;-82
2021/10/17 09:45:50;;;;;;;24.80;15.80;;;;;;;10.17;87.32;100636.59;1775605;80;20990;-82
2021/10/17 09:48:29;;;;;;;23.90;15.88;;;;;;;10.22;87.68;100635.80;1753933;81;20993;-82
2021/10/17 09:51:10;;;;;;;24.57;15.43;;;;;;;10.27;87.85;100636.86;1775813;81;21016;-81
2021/10/17 09:53:47;;;;;;;24.23;14.50;;;;;;;10.29;86.94;100627.03;1742808;82;21041;-84
2021/10/17 09:56:33;;;;;;;23.55;14.38;;;;;;;10.30;86.63;100626.95;1752156;80;21010;-82
2021/10/17 09:59:02;;;;;;;20.48;14.30;;;;;;;10.32;86.10;100621.55;1751414;80;21575;-82
2021/10/17 10:01:29;;;;;;;21.95;14.40;;;;;;;10.35;86.44;100621.83;1764979;81;21025;-84
2021/10/17 10:03:58;;;;;;;20.90;13.05;;;;;;;10.39;85.98;100620.67;1753957;80;21519;-84
2021/10/17 10:06:26;;;;;;;18.60;12.60;;;;;;;10.41;86.38;100618.79;1768321;80;21088;-84
2021/10/17 10:08:58;;;;;;;15.50;10.45;;;;;;;10.41;85.51;100626.22;1764212;80;20982;-87
2021/10/17 10:11:26;;;;;;;16.40;10.90;;;;;;;10.44;85.70;100620.74;1789893;80;21044;-86
2021/10/17 10:13:56;;;;;;;17.35;11.28;;;;;;;10.46;85.35;100623.27;1779210;80;21040;-82
2021/10/17 10:16:25;;;;;;;24.40;14.55;;;;;;;10.48;85.53;100619.58;1760175;80;21028;-82
2021/10/17 10:18:55;;;;;;;20.68;14.30;;;;;;;10.51;85.80;100622.02;1762833;81;20989;-83
2021/10/17 10:21:23;;;;;;;20.68;13.25;;;;;;;10.53;86.49;100610.89;1757320;80;21427;-84
2021/10/17 10:23:53;;;;;;;23.83;14.15;;;;;;;10.59;87.05;100614.05;1754618;81;21522;-82
2021/10/17 10:26:25;;;;;;;18.48;11.48;;;;;;;10.64;86.32;100607.99;1761172;80;21044;-82
2021/10/17 10:28:53;;;;;;;16.73;10.70;;;;;;;10.66;85.02;100614.86;1767873;81;21417;-82
2021/10/17 10:31:43;;;;;;;13.85;10.60;;;;;;;10.68;85.29;100615.58;1766140;80;21005;-83
2021/10/17 10:34:23;;;;;;;19.92;11.35;;;;;;;10.71;84.61;100614.05;1748926;80;21030;-84
2021/10/17 10:36:55;;;;;;;16.65;11.33;;;;;;;10.74;84.24;100613.85;1768112;80;21021;-83
2021/10/17 10:39:23;;;;;;;19.25;10.63;;;;;;;10.76;84.48;100611.13;1771747;80;21408;-81
2021/10/17 10:41:58;;;;;;;19.65;10.78;;;;;;;10.78;83.99;100611.84;1768496;80;21535;-81
2021/10/17 10:44:32;;;;;;;18.98;13.08;;;;;;;10.77;83.42;100603.08;1788202;80;21032;-82
2021/10/17 10:47:19;;;;;;;18.25;11.88;;;;;;;10.71;83.64;100600.86;1750643;80;21108;-81
2021/10/17 10:49:47;;;;;;;15.20;10.50;;;;;;;10.80;83.61;100612.59;1777999;80;21053;-82
2021/10/17 10:52:36;;;;;;;15.38;11.00;;;;;;;10.77;82.88;100612.32;1749269;80;21050;-82
2021/10/17 10:55:11;;;;;;;13.48;7.35;;;;;;;10.75;81.43;100618.65;1762700;80;21466;-83
2021/10/17 10:57:46;;;;;;;18.42;9.05;;;;;;;10.72;81.55;100613.09;1764134;80;22267;-83
2021/10/17 11:00:14;;;;;;;13.15;9.53;;;;;;;10.70;82.00;100617.66;1772341;80;21068;-80
2021/10/17 11:03:13;;;;;;;17.45;10.70;;;;;;;10.69;81.55;100609.34;1758932;80;20966;-81
2021/10/17 11:05:43;;;;;;;12.60;7.95;;;;;;;10.68;81.94;100615.58;1769237;80;21528;-82
2021/10/17 11:08:14;;;;;;;12.55;7.87;;;;;;;10.68;81.00;100610.78;1760081;80;20989;-81
2021/10/17 11:10:44;;;;;;;15.88;8.68;;;;;;;10.68;81.46;100615.58;1757743;80;21021;-81
2021/10/17 11:13:15;;;;;;;13.30;7.78;;;;;;;10.69;81.22;100608.50;1770642;80;21014;-81
2021/10/17 11:15:44;;;;;;;14.58;8.88;;;;;;;10.73;81.60;100607.38;1764481;80;21006;-81
2021/10/17 11:18:11;;;;;;;11.63;8.50;;;;;;;10.74;81.77;100606.41;1758926;80;21041;-81
2021/10/17 11:20:45;;;;;;;15.00;8.45;;;;;;;10.75;81.13;100611.56;1767946;80;21619;-81